createdAt,value
2022-12-17T00:01:42.308Z,-2.30
2022-12-17T00:04:33.453Z,-2.20
2022-12-17T00:07:24.146Z,-2.20
2022-12-17T00:10:14.336Z,-2.20
2022-12-17T00:13:05.915Z,-2.10
2022-12-17T00:15:56.653Z,-2.10
2022-12-17T00:21:58.826Z,-2.00
2022-12-17T00:24:49.141Z,-2.00
2022-12-17T00:27:40.309Z,-2.10
2022-12-17T00:30:30.646Z,-2.10
2022-12-17T00:33:21.788Z,-2.10
2022-12-17T00:36:14.356Z,-2.20
2022-12-17T00:39:05.409Z,-2.20
2022-12-17T00:41:55.745Z,-2.40
2022-12-17T00:44:47.852Z,-2.40
2022-12-17T00:47:38.108Z,-2.70
2022-12-17T00:50:29.792Z,-2.80
2022-12-17T00:53:21.013Z,-2.90
2022-12-17T00:56:12.215Z,-3.10
2022-12-17T00:59:03.096Z,-3.30
2022-12-17T01:01:53.471Z,-3.50
2022-12-17T01:04:45.018Z,-3.40
2022-12-17T01:07:35.970Z,-3.50
2022-12-17T01:10:27.355Z,-3.50
2022-12-17T01:13:18.245Z,-3.50
2022-12-17T01:16:11.176Z,-3.60
2022-12-17T01:19:02.436Z,-3.60
2022-12-17T01:21:52.658Z,-3.50
2022-12-17T01:24:44.406Z,-3.60
2022-12-17T01:27:34.618Z,-3.70
2022-12-17T01:30:26.967Z,-3.70
2022-12-17T01:33:23.510Z,-3.70
2022-12-17T01:36:18.635Z,-3.70
2022-12-17T01:39:09.370Z,-3.60
2022-12-17T01:42:00.205Z,-3.70
2022-12-17T01:45:06.661Z,-3.60
2022-12-17T01:48:17.062Z,-3.70
2022-12-17T01:51:15.525Z,-3.70
2022-12-17T01:54:09.590Z,-3.60
2022-12-17T01:57:02.705Z,-3.60
2022-12-17T02:00:27.034Z,-3.60
2022-12-17T02:03:19.344Z,-3.70
2022-12-17T02:06:24.473Z,-3.60
2022-12-17T02:09:34.301Z,-3.70
2022-12-17T02:12:47.127Z,-3.70
2022-12-17T02:18:56.670Z,-3.70
2022-12-17T02:21:50.190Z,-3.70
2022-12-17T02:24:52.940Z,-3.80
2022-12-17T02:27:44.797Z,-3.80
2022-12-17T02:30:37.935Z,-3.90
2022-12-17T02:33:30.750Z,-3.90
2022-12-17T02:36:26.233Z,-4.00
2022-12-17T02:39:17.080Z,-4.00
2022-12-17T02:42:13.419Z,-4.00
2022-12-17T02:45:04.804Z,-4.10
2022-12-17T02:50:53.647Z,-4.00
2022-12-17T02:53:44.811Z,-4.10
2022-12-17T02:56:36.324Z,-4.20
2022-12-17T02:59:27.699Z,-4.20
2022-12-17T03:02:19.696Z,-4.40
2022-12-17T03:05:43.582Z,-4.40
2022-12-17T03:08:29.729Z,-4.80
2022-12-17T03:11:21.528Z,-4.60
2022-12-17T03:14:11.872Z,-4.70
2022-12-17T03:17:05.593Z,-4.70
2022-12-17T03:19:55.853Z,-4.80
2022-12-17T03:22:46.997Z,-4.80
2022-12-17T03:25:37.814Z,-4.70
2022-12-17T03:28:30.632Z,-4.80
2022-12-17T03:31:21.129Z,-4.80
2022-12-17T03:34:12.886Z,-5.00
2022-12-17T03:37:03.736Z,-5.00
2022-12-17T03:39:54.376Z,-4.90
2022-12-17T03:42:45.676Z,-4.90
2022-12-17T03:45:37.371Z,-4.90
2022-12-17T03:48:32.308Z,-4.90
2022-12-17T03:51:24.080Z,-4.80
2022-12-17T03:54:14.893Z,-4.80
2022-12-17T03:57:05.532Z,-4.90
2022-12-17T03:59:56.579Z,-4.90
2022-12-17T04:03:00.721Z,-4.90
2022-12-17T04:05:52.078Z,-4.90
2022-12-17T04:08:42.284Z,-5.00
2022-12-17T04:11:32.931Z,-5.00
2022-12-17T04:14:23.265Z,-4.90
2022-12-17T04:17:13.970Z,-4.90
2022-12-17T04:20:04.240Z,-4.80
2022-12-17T04:22:55.386Z,-4.70
2022-12-17T04:25:45.681Z,-4.70
2022-12-17T04:28:36.825Z,-4.70
2022-12-17T04:31:27.552Z,-4.60
2022-12-17T04:34:18.768Z,-4.60
2022-12-17T04:37:08.943Z,-4.60
2022-12-17T04:39:59.868Z,-4.60
2022-12-17T04:42:50.113Z,-4.70
2022-12-17T04:45:41.156Z,-4.60
2022-12-17T04:48:31.405Z,-4.80
2022-12-17T04:51:22.476Z,-4.80
2022-12-17T04:54:12.694Z,-4.80
2022-12-17T04:57:03.813Z,-4.90
2022-12-17T05:02:45.727Z,-5.10
2022-12-17T05:05:36.078Z,-5.10
2022-12-17T05:08:27.108Z,-5.20
2022-12-17T05:11:25.136Z,-5.20
2022-12-17T05:14:16.277Z,-5.10
2022-12-17T05:17:06.503Z,-2.20
2022-12-17T05:19:57.648Z,-4.20
2022-12-17T05:22:48.558Z,-4.30
2022-12-17T05:25:39.720Z,-4.90
2022-12-17T05:28:29.958Z,-5.10
2022-12-17T05:31:21.617Z,-5.10
2022-12-17T05:37:20.354Z,-5.20
2022-12-17T05:40:12.856Z,-5.30
2022-12-17T05:43:25.070Z,-5.30
2022-12-17T05:46:15.911Z,-5.40
2022-12-17T05:49:06.365Z,-5.30
2022-12-17T05:51:57.529Z,-5.40
2022-12-17T05:54:50.578Z,-5.20
2022-12-17T05:57:41.852Z,-5.10
2022-12-17T06:00:32.887Z,-5.30
2022-12-17T06:03:24.710Z,-5.30
2022-12-17T06:06:16.179Z,-5.40
2022-12-17T06:09:07.326Z,-5.40
2022-12-17T06:12:02.536Z,-5.70
2022-12-17T06:14:54.261Z,-5.70
2022-12-17T06:17:45.288Z,-5.70
2022-12-17T06:20:36.469Z,-5.70
2022-12-17T06:23:29.687Z,-5.60
2022-12-17T06:26:20.319Z,-5.60
2022-12-17T06:29:10.723Z,-5.30
2022-12-17T06:32:02.389Z,-5.30
2022-12-17T06:37:44.872Z,-5.30
2022-12-17T06:40:36.523Z,-5.30
2022-12-17T06:43:27.770Z,-5.40
2022-12-17T06:46:17.968Z,-5.30
2022-12-17T06:49:09.076Z,-5.30
2022-12-17T06:51:59.193Z,-5.20
2022-12-17T06:54:50.140Z,-5.20
2022-12-17T06:57:41.828Z,-5.20
2022-12-17T07:00:35.481Z,-5.20
2022-12-17T07:03:30.525Z,-5.30
2022-12-17T07:06:21.706Z,-5.40
2022-12-17T07:09:12.446Z,-5.30
2022-12-17T07:12:02.996Z,-5.30
2022-12-17T07:14:54.158Z,-5.20
2022-12-17T07:17:47.284Z,-5.40
2022-12-17T07:20:38.340Z,-5.40
2022-12-17T07:23:29.061Z,-5.40
2022-12-17T07:26:19.719Z,-5.40
2022-12-17T07:29:10.591Z,-5.50
2022-12-17T07:32:01.785Z,-5.50
2022-12-17T07:34:52.710Z,-5.50
2022-12-17T07:37:43.865Z,-5.60
2022-12-17T07:40:34.966Z,-5.50
2022-12-17T07:43:31.401Z,-5.60
2022-12-17T07:46:22.023Z,-5.70
2022-12-17T07:49:13.395Z,-5.70
2022-12-17T07:52:04.407Z,-5.80
2022-12-17T07:54:54.628Z,-5.60
2022-12-17T07:57:45.972Z,-5.40
2022-12-17T08:00:36.323Z,-5.40
2022-12-17T08:03:29.125Z,-5.40
2022-12-17T08:06:19.779Z,-5.20
2022-12-17T08:09:09.982Z,-4.90
2022-12-17T08:12:01.153Z,-4.80
2022-12-17T08:14:51.339Z,-4.60
2022-12-17T08:20:34.851Z,-4.60
2022-12-17T08:23:26.140Z,-4.40
2022-12-17T08:26:16.382Z,-4.20
2022-12-17T08:29:07.524Z,-4.20
2022-12-17T08:31:57.870Z,-4.50
2022-12-17T08:34:48.927Z,-4.40
2022-12-17T08:37:39.345Z,-4.30
2022-12-17T08:40:30.229Z,-4.30
2022-12-17T08:43:20.444Z,-4.30
2022-12-17T08:46:12.451Z,-4.20
2022-12-17T08:49:03.108Z,-3.00
2022-12-17T08:51:54.153Z,-3.70
2022-12-17T08:54:44.628Z,-3.70
2022-12-17T09:00:28.565Z,-3.80
2022-12-17T09:03:21.793Z,-3.50
2022-12-17T09:09:03.790Z,-3.20
2022-12-17T09:11:55.735Z,-3.00
2022-12-17T09:14:47.324Z,-2.60
2022-12-17T09:17:38.972Z,-2.10
2022-12-17T09:20:29.803Z,-1.30
2022-12-17T09:23:20.963Z,-0.20
2022-12-17T09:26:13.054Z,0.50
2022-12-17T09:29:04.115Z,0.50
2022-12-17T09:31:54.310Z,1.20
2022-12-17T09:37:56.471Z,0.50
2022-12-17T09:40:49.736Z,0.80
2022-12-17T09:44:03.045Z,0.40
2022-12-17T09:47:26.036Z,0.30
2022-12-17T09:50:20.134Z,-0.60
2022-12-17T09:53:10.522Z,-0.70
2022-12-17T09:56:10.713Z,-0.90
2022-12-17T09:59:01.423Z,-1.20
2022-12-17T10:01:55.048Z,-1.40
2022-12-17T10:04:54.053Z,-1.70
2022-12-17T10:07:52.142Z,-1.70
2022-12-17T10:10:47.943Z,-2.00
2022-12-17T10:13:42.511Z,-2.30
2022-12-17T10:16:53.128Z,-2.10
2022-12-17T10:19:51.377Z,-2.10
2022-12-17T10:22:44.503Z,-1.90
2022-12-17T10:25:38.884Z,-1.80
2022-12-17T10:28:41.501Z,-1.50
2022-12-17T10:31:39.010Z,-1.60
2022-12-17T10:34:37.472Z,-1.60
2022-12-17T10:37:46.461Z,-1.70
2022-12-17T10:40:45.627Z,-1.70
2022-12-17T10:43:59.079Z,-2.00
2022-12-17T10:46:52.509Z,-2.30
2022-12-17T10:49:44.540Z,-2.00
2022-12-17T10:52:49.569Z,-2.10
2022-12-17T10:55:49.656Z,-1.90
2022-12-17T10:58:50.922Z,-1.90
2022-12-17T11:01:44.616Z,-2.40
2022-12-17T11:04:52.330Z,-2.50
2022-12-17T11:07:56.149Z,-2.10
2022-12-17T11:10:51.454Z,-2.10
2022-12-17T11:13:51.588Z,-2.30
2022-12-17T11:16:50.071Z,-2.40
2022-12-17T11:23:05.481Z,-2.50
2022-12-17T11:26:38.954Z,-2.40
2022-12-17T11:29:47.092Z,-2.50
2022-12-17T11:33:13.679Z,-2.40
2022-12-17T11:36:36.917Z,-2.30
2022-12-17T11:39:47.732Z,-2.30
2022-12-17T11:42:48.620Z,-2.30
2022-12-17T11:46:19.436Z,-2.20
2022-12-17T11:49:51.028Z,-2.50
2022-12-17T11:56:54.784Z,-2.60
2022-12-17T12:00:23.480Z,-2.60
2022-12-17T12:04:24.789Z,-2.60
2022-12-17T12:07:35.282Z,-2.60
2022-12-17T12:10:36.284Z,-2.60
2022-12-17T12:13:39.917Z,-2.60
2022-12-17T12:16:43.956Z,-2.60
2022-12-17T12:19:53.067Z,-2.60
2022-12-17T12:23:06.313Z,-2.50
2022-12-17T12:26:33.376Z,-2.40
2022-12-17T12:29:55.328Z,-2.40
2022-12-17T12:33:05.500Z,-2.20
2022-12-17T12:36:00.570Z,-0.30
2022-12-17T12:38:59.963Z,-1.20
2022-12-17T12:42:44.384Z,-1.90
2022-12-17T12:46:06.867Z,-2.10
2022-12-17T12:49:22.896Z,-2.20
2022-12-17T12:52:15.585Z,-2.30
2022-12-17T12:55:06.093Z,-2.30
2022-12-17T12:58:03.524Z,-2.30
2022-12-17T13:01:14.947Z,-2.40
2022-12-17T13:06:54.602Z,-2.40
2022-12-17T13:09:34.467Z,-2.70
2022-12-17T13:12:32.409Z,-1.70
2022-12-17T13:15:07.257Z,-2.70
2022-12-17T13:18:07.534Z,-2.70
2022-12-17T13:20:39.596Z,-2.70
2022-12-17T13:23:12.210Z,-2.70
2022-12-17T13:25:44.551Z,-2.60
2022-12-17T13:28:29.859Z,-2.50
2022-12-17T13:31:16.343Z,-2.50
2022-12-17T13:33:54.029Z,-2.40
2022-12-17T13:37:07.269Z,-2.40
2022-12-17T13:40:02.534Z,-2.40
2022-12-17T13:42:36.877Z,-2.40
2022-12-17T13:45:20.076Z,-2.50
2022-12-17T13:47:58.772Z,-2.60
2022-12-17T13:50:34.354Z,-2.60
2022-12-17T13:53:13.552Z,-2.60
2022-12-17T13:55:51.556Z,-2.60
2022-12-17T13:58:29.547Z,-1.90
2022-12-17T14:01:12.801Z,-2.40
2022-12-17T14:04:06.724Z,-2.40
2022-12-17T14:06:39.234Z,-2.40
2022-12-17T14:09:18.728Z,-2.40
2022-12-17T14:12:10.041Z,-2.40
2022-12-17T14:14:47.497Z,-2.40
2022-12-17T14:17:26.116Z,-2.50
2022-12-17T14:20:06.553Z,-2.70
2022-12-17T14:22:50.772Z,-2.70
2022-12-17T14:25:30.079Z,-2.70
2022-12-17T14:28:29.027Z,-2.60
2022-12-17T14:31:29.354Z,-2.60
2022-12-17T14:34:11.159Z,-2.70
2022-12-17T14:36:44.862Z,-2.70
2022-12-17T14:39:31.987Z,-2.60
2022-12-17T14:42:25.898Z,-2.70
2022-12-17T14:45:07.692Z,-2.60
2022-12-17T14:47:40.706Z,-3.00
2022-12-17T14:50:12.618Z,-3.00
2022-12-17T14:52:53.608Z,-2.90
2022-12-17T14:55:58.734Z,-2.70
2022-12-17T14:58:31.551Z,-2.60
2022-12-17T15:01:13.200Z,-2.60
2022-12-17T15:03:49.354Z,-2.60
2022-12-17T15:11:29.687Z,-2.50
2022-12-17T15:14:02.677Z,-2.50
2022-12-17T15:19:14.878Z,-2.70
2022-12-17T15:24:21.448Z,-2.80
2022-12-17T15:26:53.744Z,-2.80
2022-12-17T15:29:26.617Z,-2.90
2022-12-17T15:31:59.753Z,-2.80
2022-12-17T15:37:05.751Z,-2.90
2022-12-17T15:39:37.808Z,-3.00
2022-12-17T15:42:29.513Z,-3.00
2022-12-17T15:45:01.581Z,-3.00
2022-12-17T15:47:33.900Z,-3.00
2022-12-17T15:50:07.824Z,-3.10
2022-12-17T15:52:40.589Z,-3.00
2022-12-17T15:55:13.004Z,-3.00
2022-12-17T15:57:45.075Z,-3.00
2022-12-17T16:00:18.734Z,-2.90
2022-12-17T16:02:51.568Z,-3.10
2022-12-17T16:05:24.616Z,-3.00
2022-12-17T16:07:59.226Z,-3.00
2022-12-17T16:10:32.442Z,-3.10
2022-12-17T16:13:05.192Z,-3.10
2022-12-17T16:15:37.934Z,-3.00
2022-12-17T16:18:10.102Z,-3.00
2022-12-17T16:23:17.151Z,-3.10
2022-12-17T16:26:01.580Z,-3.00
2022-12-17T16:28:36.627Z,-3.10
2022-12-17T16:31:14.376Z,-3.10
2022-12-17T16:33:48.384Z,-2.90
2022-12-17T16:36:22.955Z,-2.90
2022-12-17T16:38:55.752Z,-3.00
2022-12-17T16:41:28.496Z,-3.00
2022-12-17T16:44:01.456Z,-2.90
2022-12-17T16:46:40.187Z,-2.90
2022-12-17T16:49:19.561Z,-2.90
2022-12-17T16:54:46.725Z,-2.90
2022-12-17T16:57:18.642Z,-3.10
2022-12-17T17:07:30.060Z,-3.30
2022-12-17T17:10:01.984Z,-3.30
2022-12-17T17:12:34.805Z,-3.30
2022-12-17T17:15:07.800Z,-3.30
2022-12-17T17:20:32.278Z,-3.30
2022-12-17T17:23:05.544Z,-3.20
2022-12-17T17:25:57.409Z,-3.30
2022-12-17T17:28:30.374Z,-3.30
2022-12-17T17:31:05.348Z,-3.30
2022-12-17T17:33:41.377Z,-3.30
2022-12-17T17:36:29.375Z,-3.20
2022-12-17T17:39:02.986Z,-3.10
2022-12-17T17:41:35.876Z,-3.00
2022-12-17T17:44:11.645Z,-3.00
2022-12-17T17:46:44.457Z,-3.00
2022-12-17T17:49:17.505Z,-3.00
2022-12-17T17:57:16.716Z,-3.20
2022-12-17T17:59:49.199Z,-3.30
2022-12-17T18:02:21.453Z,-3.30
2022-12-17T18:04:54.736Z,-3.40
2022-12-17T18:07:27.493Z,-3.50
2022-12-17T18:10:00.513Z,-4.50
2022-12-17T18:12:50.756Z,-3.50
2022-12-17T18:15:23.512Z,-3.30
2022-12-17T18:17:55.382Z,-3.40
2022-12-17T18:20:28.234Z,-3.30
2022-12-17T18:23:00.341Z,-3.30
2022-12-17T18:25:37.676Z,-3.40
2022-12-17T18:28:09.906Z,-3.40
2022-12-17T18:30:45.520Z,-3.50
2022-12-17T18:33:17.569Z,-3.50
2022-12-17T18:35:50.973Z,-2.70
2022-12-17T18:38:23.032Z,-3.50
2022-12-17T18:43:28.642Z,-3.60
2022-12-17T18:46:04.809Z,-3.60
2022-12-17T18:48:37.995Z,-1.50
2022-12-17T18:51:10.833Z,-3.60
2022-12-17T18:56:31.658Z,-3.50
2022-12-17T18:59:13.322Z,-3.70
2022-12-17T19:01:47.230Z,-3.70
2022-12-17T19:04:21.618Z,-3.60
2022-12-17T19:09:38.410Z,-3.80
2022-12-17T19:12:11.272Z,-3.90
2022-12-17T19:17:16.208Z,-3.90
2022-12-17T19:19:48.476Z,-3.80
2022-12-17T19:22:21.193Z,-3.80
2022-12-17T19:24:53.738Z,-3.80
2022-12-17T19:27:26.878Z,-3.70
2022-12-17T19:29:58.823Z,-3.70
2022-12-17T19:32:31.518Z,-3.70
2022-12-17T19:35:04.005Z,-3.90
2022-12-17T19:37:35.934Z,-3.90
2022-12-17T19:40:09.849Z,-3.90
2022-12-17T19:42:41.859Z,-4.00
2022-12-17T19:45:15.882Z,-4.10
2022-12-17T19:47:49.660Z,-4.00
2022-12-17T19:50:21.570Z,-3.90
2022-12-17T19:52:54.379Z,-3.80
2022-12-17T19:55:26.348Z,-3.70
2022-12-17T19:58:21.091Z,-3.70
2022-12-17T20:00:53.057Z,-3.70
2022-12-17T20:03:26.712Z,-3.60
2022-12-17T20:05:59.381Z,-3.90
2022-12-17T20:08:33.176Z,-3.70
2022-12-17T20:11:26.486Z,-3.70
2022-12-17T20:14:14.937Z,-3.70
2022-12-17T20:16:54.124Z,-4.00
2022-12-17T20:19:31.759Z,-3.80
2022-12-17T20:22:05.267Z,-3.80
2022-12-17T20:24:39.692Z,-3.70
2022-12-17T20:27:11.623Z,-3.70
2022-12-17T20:29:44.399Z,-3.50
2022-12-17T20:32:19.291Z,-4.00
2022-12-17T20:34:52.658Z,-4.00
2022-12-17T20:37:24.987Z,-4.00
2022-12-17T20:39:56.887Z,-4.00
2022-12-17T20:42:32.559Z,-4.00
2022-12-17T20:45:04.827Z,-3.80
2022-12-17T20:47:40.459Z,-3.90
2022-12-17T20:50:13.312Z,-3.70
2022-12-17T20:52:45.229Z,-3.70
2022-12-17T20:55:18.078Z,-3.70
2022-12-17T20:57:50.302Z,-3.70
2022-12-17T21:00:23.050Z,-3.70
2022-12-17T21:02:59.929Z,-3.50
2022-12-17T21:05:36.060Z,-3.60
2022-12-17T21:08:08.462Z,-3.80
2022-12-17T21:10:41.189Z,-4.00
2022-12-17T21:13:31.121Z,-3.80
2022-12-17T21:16:08.144Z,-3.90
2022-12-17T21:18:41.122Z,-3.80
2022-12-17T21:21:18.679Z,-3.80
2022-12-17T21:23:51.464Z,-3.90
2022-12-17T21:26:31.446Z,-4.20
2022-12-17T21:29:06.068Z,-4.20
2022-12-17T21:31:53.022Z,-4.50
2022-12-17T21:34:29.054Z,-4.50
2022-12-17T21:39:34.520Z,-4.30
2022-12-17T21:42:25.459Z,-4.20
2022-12-17T21:44:57.828Z,-4.40
2022-12-17T21:47:30.341Z,-4.50
2022-12-17T21:50:03.167Z,-4.50
2022-12-17T21:52:35.893Z,-4.20
2022-12-17T21:55:08.574Z,-4.20
2022-12-17T22:00:14.369Z,-4.10
2022-12-17T22:02:47.509Z,-4.20
2022-12-17T22:05:23.577Z,-4.20
2022-12-17T22:07:56.383Z,-4.10
2022-12-17T22:10:36.783Z,-4.40
2022-12-17T22:13:35.883Z,-4.30
2022-12-17T22:16:09.024Z,-4.10
2022-12-17T22:18:41.220Z,-4.20
2022-12-17T22:21:14.164Z,-4.20
2022-12-17T22:23:48.197Z,-4.20
2022-12-17T22:26:21.714Z,-4.00
2022-12-17T22:28:54.055Z,-4.00
2022-12-17T22:31:46.061Z,-4.00
2022-12-17T22:35:28.922Z,-3.80
2022-12-17T22:40:06.150Z,-3.90
2022-12-17T22:44:35.059Z,-3.90
2022-12-17T22:44:42.341Z,-3.80
2022-12-17T22:46:07.945Z,-3.80
2022-12-17T22:48:40.978Z,-3.70
2022-12-17T22:51:21.059Z,-2.30
2022-12-17T22:54:06.448Z,-3.80
2022-12-17T22:57:12.853Z,-3.90
2022-12-17T22:59:33.930Z,-4.00
2022-12-17T23:02:08.419Z,-4.00
2022-12-17T23:04:42.456Z,-4.00
2022-12-17T23:07:14.936Z,-4.00
2022-12-17T23:09:47.093Z,-3.80
2022-12-17T23:12:37.926Z,-3.80
2022-12-17T23:15:10.673Z,-3.70
2022-12-17T23:17:43.679Z,-3.70
2022-12-17T23:20:16.935Z,-4.00
2022-12-17T23:22:48.941Z,-4.00
2022-12-17T23:25:23.758Z,-3.90
2022-12-17T23:27:55.804Z,-4.00
2022-12-17T23:30:28.591Z,-3.80
2022-12-17T23:33:00.545Z,-3.90
2022-12-17T23:35:33.268Z,-3.90
2022-12-17T23:38:05.679Z,-3.90
2022-12-17T23:40:37.580Z,-3.90
2022-12-17T23:43:15.815Z,-3.90
2022-12-17T23:45:49.804Z,-4.10
2022-12-17T23:48:22.667Z,-4.60
2022-12-17T23:50:54.549Z,-4.70
2022-12-17T23:53:29.519Z,-4.60
2022-12-17T23:56:32.588Z,-4.80
2022-12-17T23:59:04.612Z,-4.80
